createdAt,value
2022-09-13T00:02:36.722Z,15.00
2022-09-13T00:06:50.419Z,15.00
2022-09-13T00:11:06.214Z,15.00
2022-09-13T00:15:20.463Z,15.00
2022-09-13T00:19:34.527Z,15.00
2022-09-13T00:23:50.070Z,15.00
2022-09-13T00:28:05.942Z,15.00
2022-09-13T00:32:20.087Z,15.00
2022-09-13T00:36:33.915Z,15.00
2022-09-13T00:40:47.745Z,14.90
2022-09-13T00:45:15.473Z,14.90
2022-09-13T00:49:35.383Z,14.90
2022-09-13T00:53:53.713Z,14.90
2022-09-13T00:58:17.663Z,14.90
2022-09-13T01:02:33.311Z,14.90
2022-09-13T01:06:47.534Z,14.90
2022-09-13T01:11:04.654Z,14.90
2022-09-13T01:15:18.396Z,14.80
2022-09-13T01:19:33.585Z,14.80
2022-09-13T01:24:16.694Z,14.80
2022-09-13T01:29:05.837Z,14.80
2022-09-13T01:33:53.385Z,14.90
2022-09-13T01:38:18.762Z,14.90
2022-09-13T01:42:49.272Z,14.80
2022-09-13T01:47:08.776Z,14.80
2022-09-13T01:51:30.418Z,14.70
2022-09-13T01:55:49.473Z,14.70
2022-09-13T02:00:07.736Z,14.60
2022-09-13T02:04:29.182Z,14.60
2022-09-13T02:08:47.599Z,14.60
2022-09-13T02:13:02.955Z,14.60
2022-09-13T02:17:21.818Z,14.60
2022-09-13T02:21:40.701Z,14.70
2022-09-13T02:25:58.374Z,14.70
2022-09-13T02:30:14.382Z,14.80
2022-09-13T02:34:32.494Z,14.90
2022-09-13T02:38:52.542Z,15.00
2022-09-13T02:43:13.634Z,15.00
2022-09-13T02:47:35.916Z,15.00
2022-09-13T02:51:56.742Z,15.10
2022-09-13T02:56:22.389Z,15.10
2022-09-13T03:00:37.901Z,15.10
2022-09-13T03:04:52.707Z,15.10
2022-09-13T03:09:07.680Z,15.00
2022-09-13T03:13:41.367Z,15.00
2022-09-13T03:18:10.448Z,14.90
2022-09-13T03:22:48.861Z,14.90
2022-09-13T03:27:14.815Z,14.90
2022-09-13T03:31:34.837Z,14.80
2022-09-13T03:35:56.051Z,14.70
2022-09-13T03:40:14.227Z,14.60
2022-09-13T03:44:30.927Z,14.60
2022-09-13T03:48:46.411Z,14.50
2022-09-13T03:53:05.642Z,14.50
2022-09-13T03:57:22.172Z,14.50
2022-09-13T04:01:36.114Z,14.60
2022-09-13T04:05:50.274Z,14.70
2022-09-13T04:10:08.757Z,14.70
2022-09-13T04:14:26.470Z,14.70
2022-09-13T04:18:40.163Z,14.80
2022-09-13T04:22:54.254Z,14.80
2022-09-13T04:27:09.364Z,14.70
2022-09-13T04:31:23.230Z,14.70
2022-09-13T04:35:37.383Z,14.70
2022-09-13T04:39:51.089Z,14.70
2022-09-13T04:44:06.448Z,14.70
2022-09-13T04:48:20.893Z,14.60
2022-09-13T04:52:34.851Z,14.60
2022-09-13T04:56:49.534Z,14.60
2022-09-13T05:01:05.836Z,14.60
2022-09-13T05:05:19.571Z,14.70
2022-09-13T05:09:33.317Z,14.90
2022-09-13T05:13:52.979Z,15.10
2022-09-13T05:18:08.141Z,15.20
2022-09-13T05:22:21.840Z,15.30
2022-09-13T05:26:35.575Z,15.50
2022-09-13T05:30:57.007Z,16.00
2022-09-13T05:35:12.095Z,16.70
2022-09-13T05:39:33.847Z,17.30
2022-09-13T05:43:57.727Z,17.80
2022-09-13T05:48:13.423Z,18.30
2022-09-13T05:52:28.818Z,18.50
2022-09-13T05:56:42.822Z,18.80
2022-09-13T06:00:57.198Z,19.20
2022-09-13T06:05:12.004Z,19.40
2022-09-13T06:09:27.196Z,19.30
2022-09-13T06:13:41.877Z,19.10
2022-09-13T06:17:55.768Z,18.90
2022-09-13T06:22:09.768Z,18.80
2022-09-13T06:26:27.245Z,18.70
2022-09-13T06:30:40.955Z,18.60
2022-09-13T06:34:54.702Z,18.50
2022-09-13T06:39:08.775Z,18.30
2022-09-13T06:43:23.964Z,18.20
2022-09-13T06:47:37.872Z,18.00
2022-09-13T06:51:51.616Z,17.80
2022-09-13T06:56:08.095Z,17.70
2022-09-13T07:00:23.275Z,17.60
2022-09-13T07:04:37.243Z,17.60
2022-09-13T07:08:52.506Z,17.40
2022-09-13T07:13:06.504Z,17.40
2022-09-13T07:17:21.652Z,17.30
2022-09-13T07:21:36.554Z,17.30
2022-09-13T07:25:56.020Z,17.20
2022-09-13T07:30:10.405Z,17.10
2022-09-13T07:34:26.799Z,17.00
2022-09-13T07:38:42.237Z,17.00
2022-09-13T07:42:56.193Z,17.10
2022-09-13T07:47:10.349Z,17.20
2022-09-13T07:51:26.901Z,17.20
2022-09-13T07:55:40.864Z,17.30
2022-09-13T07:59:55.385Z,17.50
2022-09-13T08:04:11.052Z,17.70
2022-09-13T08:08:26.193Z,17.90
2022-09-13T08:12:40.090Z,18.10
2022-09-13T08:16:56.783Z,18.30
2022-09-13T08:21:10.629Z,18.40
2022-09-13T08:25:27.694Z,18.40
2022-09-13T08:29:41.611Z,18.50
2022-09-13T08:33:56.280Z,18.70
2022-09-13T08:38:09.972Z,19.00
2022-09-13T08:42:49.371Z,19.20
2022-09-13T08:47:22.865Z,19.50
2022-09-13T08:51:42.872Z,19.70
2022-09-13T08:56:04.507Z,19.90
2022-09-13T09:00:23.066Z,20.20
2022-09-13T09:04:43.648Z,20.20
2022-09-13T09:09:03.631Z,20.40
2022-09-13T09:13:26.598Z,20.70
2022-09-13T09:17:49.588Z,21.10
2022-09-13T09:22:07.441Z,21.40
2022-09-13T09:26:23.948Z,21.60
2022-09-13T09:30:44.899Z,21.80
2022-09-13T09:35:12.794Z,21.90
2022-09-13T09:39:32.937Z,22.00
2022-09-13T09:43:53.639Z,22.30
2022-09-13T09:48:15.139Z,23.00
2022-09-13T09:52:40.158Z,23.90
2022-09-13T09:56:56.016Z,24.70
2022-09-13T10:01:20.893Z,25.40
2022-09-13T10:05:36.525Z,25.80
2022-09-13T10:10:00.408Z,26.10
2022-09-13T10:14:38.226Z,26.30
2022-09-13T10:18:51.987Z,26.60
2022-09-13T10:23:22.697Z,26.80
2022-09-13T10:27:42.781Z,27.30
2022-09-13T10:31:58.973Z,28.00
2022-09-13T10:36:29.612Z,29.00
2022-09-13T10:41:17.261Z,29.30
2022-09-13T10:45:42.900Z,29.00
2022-09-13T10:49:59.412Z,28.40
2022-09-13T10:54:21.844Z,27.80
2022-09-13T10:58:35.637Z,27.30
2022-09-13T11:03:07.185Z,27.10
2022-09-13T11:07:40.939Z,26.90
2022-09-13T11:12:03.755Z,26.80
2022-09-13T11:16:29.979Z,26.70
2022-09-13T11:20:52.607Z,26.60
2022-09-13T11:25:31.043Z,26.70
2022-09-13T11:30:05.968Z,26.90
2022-09-13T11:34:33.283Z,27.40
2022-09-13T11:39:03.924Z,27.90
2022-09-13T11:43:45.099Z,28.20
2022-09-13T11:48:31.661Z,28.50
2022-09-13T11:52:54.081Z,28.60
2022-09-13T11:57:14.473Z,28.30
2022-09-13T12:01:32.848Z,27.90
2022-09-13T12:05:49.356Z,27.50
2022-09-13T12:10:14.782Z,27.00
2022-09-13T12:14:37.091Z,26.80
2022-09-13T12:18:54.153Z,26.50
2022-09-13T12:23:18.488Z,26.30
2022-09-13T12:27:40.286Z,26.30
2022-09-13T12:32:00.152Z,26.20
2022-09-13T12:36:39.411Z,26.30
2022-09-13T12:41:05.725Z,26.30
2022-09-13T12:45:47.029Z,26.30
2022-09-13T12:55:46.738Z,26.20
2022-09-13T13:00:14.516Z,26.10
2022-09-13T13:04:31.700Z,25.90
2022-09-13T13:08:55.009Z,25.80
2022-09-13T13:13:19.206Z,25.80
2022-09-13T13:17:43.835Z,25.70
2022-09-13T13:21:57.816Z,25.70
2022-09-13T13:26:34.142Z,25.60
2022-09-13T13:30:56.375Z,25.60
2022-09-13T13:35:30.217Z,25.60
2022-09-13T13:39:45.384Z,25.80
2022-09-13T13:44:00.596Z,25.90
2022-09-13T13:48:16.260Z,26.00
2022-09-13T13:52:40.836Z,26.10
2022-09-13T13:56:54.711Z,26.20
2022-09-13T14:01:18.633Z,26.20
2022-09-13T14:05:41.021Z,26.20
2022-09-13T14:10:03.536Z,26.20
2022-09-13T14:14:33.848Z,26.10
2022-09-13T14:19:11.836Z,26.00
2022-09-13T14:23:25.491Z,25.70
2022-09-13T14:27:41.220Z,25.60
2022-09-13T14:32:01.456Z,25.40
2022-09-13T14:36:22.613Z,25.40
2022-09-13T14:40:37.777Z,25.40
2022-09-13T14:44:52.082Z,25.40
2022-09-13T14:49:11.051Z,25.40
2022-09-13T14:53:30.523Z,25.50
2022-09-13T14:57:49.573Z,25.50
2022-09-13T15:02:08.687Z,25.50
2022-09-13T15:06:25.184Z,25.40
2022-09-13T15:10:45.170Z,25.40
2022-09-13T15:15:22.813Z,25.20
2022-09-13T15:19:43.411Z,25.20
2022-09-13T15:23:57.170Z,25.10
2022-09-13T15:28:23.527Z,25.00
2022-09-13T15:32:43.468Z,25.00
2022-09-13T15:37:11.127Z,25.00
2022-09-13T15:41:29.380Z,25.00
2022-09-13T15:45:45.200Z,25.10
2022-09-13T15:49:59.390Z,25.10
2022-09-13T15:54:15.029Z,25.00
2022-09-13T15:58:28.991Z,25.00
2022-09-13T16:02:44.083Z,24.90
2022-09-13T16:06:57.847Z,24.70
2022-09-13T16:11:11.656Z,24.60
2022-09-13T16:15:25.529Z,24.40
2022-09-13T16:19:41.396Z,24.20
2022-09-13T16:23:55.146Z,24.10
2022-09-13T16:28:08.934Z,23.90
2022-09-13T16:32:23.009Z,23.80
2022-09-13T16:36:38.873Z,23.70
2022-09-13T16:40:53.641Z,23.60
2022-09-13T16:45:09.078Z,23.50
2022-09-13T16:49:22.868Z,23.50
2022-09-13T16:53:41.419Z,23.40
2022-09-13T16:57:55.692Z,23.40
2022-09-13T17:02:11.186Z,23.40
2022-09-13T17:06:26.754Z,23.30
2022-09-13T17:10:42.004Z,23.00
2022-09-13T17:14:57.562Z,22.80
2022-09-13T17:19:16.027Z,22.60
2022-09-13T17:23:29.843Z,22.40
2022-09-13T17:27:48.419Z,22.10
2022-09-13T17:32:03.918Z,21.90
2022-09-13T17:36:17.797Z,21.80
2022-09-13T17:40:32.882Z,21.60
2022-09-13T17:44:48.128Z,21.60
2022-09-13T17:49:01.887Z,21.50
2022-09-13T17:53:15.666Z,21.40
2022-09-13T17:57:29.519Z,21.30
2022-09-13T18:01:46.872Z,21.20
2022-09-13T18:06:02.154Z,21.10
2022-09-13T18:10:45.202Z,21.00
2022-09-13T18:14:52.507Z,20.80
2022-09-13T18:19:07.847Z,20.60
2022-09-13T18:23:21.790Z,20.50
2022-09-13T18:27:35.598Z,20.40
2022-09-13T18:31:49.441Z,20.30
2022-09-13T18:36:06.892Z,20.20
2022-09-13T18:40:20.661Z,20.00
2022-09-13T18:44:34.486Z,20.00
2022-09-13T18:48:49.627Z,19.80
2022-09-13T18:53:04.630Z,19.80
2022-09-13T18:57:18.344Z,19.80
2022-09-13T19:01:33.983Z,19.70
2022-09-13T19:05:47.846Z,19.70
2022-09-13T19:10:03.309Z,19.70
2022-09-13T19:14:18.921Z,19.60
2022-09-13T19:18:33.628Z,19.60
2022-09-13T19:22:47.420Z,19.50
2022-09-13T19:27:02.619Z,19.40
2022-09-13T19:31:17.084Z,19.40
2022-09-13T19:35:30.906Z,19.40
2022-09-13T19:39:45.635Z,19.40
2022-09-13T19:44:04.807Z,19.30
2022-09-13T19:48:38.097Z,19.20
2022-09-13T19:52:52.612Z,19.20
2022-09-13T19:57:07.732Z,19.10
2022-09-13T20:01:24.788Z,19.10
2022-09-13T20:05:38.933Z,19.20
2022-09-13T20:09:52.657Z,19.20
2022-09-13T20:14:07.455Z,19.30
2022-09-13T20:18:23.025Z,19.30
2022-09-13T20:22:36.868Z,19.30
2022-09-13T20:26:52.274Z,19.40
2022-09-13T20:31:06.415Z,19.40
2022-09-13T20:35:22.021Z,19.40
2022-09-13T20:39:35.900Z,19.40
2022-09-13T20:43:50.348Z,19.40
2022-09-13T20:48:04.405Z,19.40
2022-09-13T20:52:22.154Z,19.30
2022-09-13T20:56:36.804Z,19.20
2022-09-13T21:00:50.843Z,19.20
2022-09-13T21:05:04.881Z,19.10
2022-09-13T21:09:20.745Z,19.00
2022-09-13T21:13:35.436Z,19.00
2022-09-13T21:17:49.832Z,18.90
2022-09-13T21:22:04.137Z,18.80
2022-09-13T21:26:21.389Z,18.80
2022-09-13T21:30:35.370Z,18.80
2022-09-13T21:34:49.511Z,18.80
2022-09-13T21:39:03.439Z,18.70
2022-09-13T21:43:25.428Z,18.70
2022-09-13T21:47:39.800Z,18.70
2022-09-13T21:51:54.210Z,18.70
2022-09-13T21:56:10.277Z,18.80
2022-09-13T22:00:25.474Z,18.90
2022-09-13T22:04:39.841Z,18.90
2022-09-13T22:08:55.140Z,18.90
2022-09-13T22:13:09.023Z,18.90
2022-09-13T22:17:24.469Z,18.90
2022-09-13T22:21:41.310Z,18.80
2022-09-13T22:25:55.142Z,18.70
2022-09-13T22:30:09.782Z,18.70
2022-09-13T22:34:26.706Z,18.60
2022-09-13T22:38:41.726Z,18.60
2022-09-13T22:42:55.404Z,18.50
2022-09-13T22:47:09.223Z,18.50
2022-09-13T22:51:24.827Z,18.40
2022-09-13T22:55:38.540Z,18.40
2022-09-13T22:59:52.693Z,18.40
2022-09-13T23:04:07.167Z,18.20
2022-09-13T23:08:22.535Z,18.20
2022-09-13T23:12:36.802Z,18.20
2022-09-13T23:16:52.457Z,18.20
2022-09-13T23:21:06.434Z,18.20
2022-09-13T23:25:21.604Z,18.20
2022-09-13T23:29:35.638Z,18.20
2022-09-13T23:33:50.891Z,18.10
2022-09-13T23:38:06.227Z,18.10
2022-09-13T23:42:21.408Z,18.10
2022-09-13T23:46:35.466Z,18.10
2022-09-13T23:50:49.545Z,18.10
2022-09-13T23:55:04.167Z,18.00
2022-09-13T23:59:19.470Z,18.00
